createdAt,value
2018-12-27T00:01:47.508Z,99411.55
2018-12-27T00:04:16.148Z,99407.74
2018-12-27T00:06:44.798Z,99405.20
2018-12-27T00:09:13.840Z,99404.16
2018-12-27T00:11:42.555Z,99406.41
2018-12-27T00:14:11.232Z,99405.59
2018-12-27T00:16:39.879Z,99412.41
2018-12-27T00:19:08.502Z,99403.22
2018-12-27T00:21:37.158Z,99402.12
2018-12-27T00:24:06.147Z,99397.68
2018-12-27T00:26:35.097Z,99397.29
2018-12-27T00:29:04.052Z,99389.78
2018-12-27T00:31:32.876Z,99394.14
2018-12-27T00:34:01.841Z,99399.66
2018-12-27T00:36:31.023Z,99402.23
2018-12-27T00:38:59.825Z,99395.48
2018-12-27T00:41:28.669Z,99394.70
2018-12-27T00:43:57.515Z,99387.25
2018-12-27T00:46:26.331Z,99384.77
2018-12-27T00:48:55.167Z,99382.44
2018-12-27T00:51:23.983Z,99379.41
2018-12-27T00:53:53.146Z,99377.54
2018-12-27T00:56:21.952Z,99375.22
2018-12-27T00:58:50.865Z,99373.40
2018-12-27T01:01:19.739Z,99373.40
2018-12-27T01:03:48.549Z,99376.08
2018-12-27T01:06:17.367Z,99382.48
2018-12-27T01:08:46.179Z,99385.05
2018-12-27T01:11:14.993Z,99380.51
2018-12-27T01:13:43.814Z,99381.77
2018-12-27T01:16:12.632Z,99393.42
2018-12-27T01:18:41.521Z,99386.16
2018-12-27T01:21:10.344Z,99376.38
2018-12-27T01:23:39.157Z,99378.49
2018-12-27T01:26:07.964Z,99376.61
2018-12-27T01:28:36.781Z,99377.54
2018-12-27T01:31:05.598Z,99372.78
2018-12-27T01:33:35.933Z,99374.55
2018-12-27T01:36:04.819Z,99376.61
2018-12-27T01:38:34.091Z,99378.69
2018-12-27T01:41:02.935Z,99381.17
2018-12-27T01:43:31.763Z,99372.36
2018-12-27T01:46:00.587Z,99372.27
2018-12-27T01:48:29.408Z,99375.44
2018-12-27T01:50:58.219Z,99377.34
2018-12-27T01:53:27.031Z,99379.98
2018-12-27T01:55:56.145Z,99370.36
2018-12-27T01:58:24.943Z,99369.27
2018-12-27T02:00:53.931Z,99374.45
2018-12-27T02:03:26.485Z,99369.34
2018-12-27T02:05:53.255Z,99369.79
2018-12-27T02:08:22.075Z,99368.83
2018-12-27T02:10:50.891Z,99371.02
2018-12-27T02:13:19.691Z,99370.45
2018-12-27T02:15:48.512Z,99363.84
2018-12-27T02:18:18.312Z,99352.45
2018-12-27T02:20:47.134Z,99351.26
2018-12-27T02:23:15.961Z,99347.05
2018-12-27T02:25:44.774Z,99346.64
2018-12-27T02:28:13.580Z,99348.71
2018-12-27T02:30:42.417Z,99350.66
2018-12-27T02:33:11.321Z,99338.80
2018-12-27T02:35:40.439Z,99343.44
2018-12-27T02:38:09.266Z,99342.53
2018-12-27T02:40:38.075Z,99340.09
2018-12-27T02:43:06.889Z,99340.47
2018-12-27T02:45:35.752Z,99338.52
2018-12-27T02:48:04.568Z,99329.79
2018-12-27T02:50:33.389Z,99337.30
2018-12-27T02:53:02.311Z,99335.96
2018-12-27T02:55:31.146Z,99329.27
2018-12-27T02:57:59.955Z,99333.64
2018-12-27T03:00:28.771Z,99333.33
2018-12-27T03:02:57.570Z,99327.84
2018-12-27T03:05:26.384Z,99325.36
2018-12-27T03:07:55.211Z,99324.79
2018-12-27T03:10:24.033Z,99320.00
2018-12-27T03:12:52.832Z,99321.14
2018-12-27T03:15:21.651Z,99320.77
2018-12-27T03:17:50.532Z,99326.17
2018-12-27T03:20:19.336Z,99317.64
2018-12-27T03:22:48.523Z,99317.64
2018-12-27T03:25:17.348Z,99313.86
2018-12-27T03:27:46.158Z,99316.75
2018-12-27T03:30:14.995Z,99314.39
2018-12-27T03:32:43.805Z,99312.20
2018-12-27T03:35:12.614Z,99315.73
2018-12-27T03:37:41.462Z,99313.91
2018-12-27T03:40:10.276Z,99314.64
2018-12-27T03:42:39.752Z,99316.30
2018-12-27T03:45:08.892Z,99311.30
2018-12-27T03:47:37.718Z,99314.59
2018-12-27T03:50:06.583Z,99316.95
2018-12-27T03:52:35.432Z,99308.83
2018-12-27T03:55:04.238Z,99304.36
2018-12-27T03:57:33.050Z,99298.47
2018-12-27T04:00:01.878Z,99297.45
2018-12-27T04:02:30.757Z,99299.59
2018-12-27T04:04:59.857Z,99290.91
2018-12-27T04:07:28.671Z,99293.70
2018-12-27T04:09:57.755Z,99295.30
2018-12-27T04:12:26.560Z,99298.71
2018-12-27T04:14:55.388Z,99302.53
2018-12-27T04:17:24.093Z,99297.13
2018-12-27T04:19:52.727Z,99296.67
2018-12-27T04:22:21.385Z,99295.78
2018-12-27T04:24:50.017Z,99296.84
2018-12-27T04:27:18.661Z,99292.01
2018-12-27T04:29:47.307Z,99292.78
2018-12-27T04:32:15.945Z,99289.50
2018-12-27T04:34:44.604Z,99293.70
2018-12-27T04:37:13.596Z,99284.50
2018-12-27T04:39:42.259Z,99286.94
2018-12-27T04:42:10.919Z,99289.86
2018-12-27T04:44:39.667Z,99287.46
2018-12-27T04:47:08.317Z,99284.70
2018-12-27T04:49:36.951Z,99281.25
2018-12-27T04:52:05.595Z,99282.83
2018-12-27T04:54:34.223Z,99283.12
2018-12-27T04:57:02.860Z,99280.47
2018-12-27T04:59:31.867Z,99273.81
2018-12-27T05:02:00.862Z,99272.23
2018-12-27T05:04:29.492Z,99276.73
2018-12-27T05:06:58.436Z,99285.27
2018-12-27T05:09:27.075Z,99275.96
2018-12-27T05:11:55.714Z,99275.96
2018-12-27T05:14:24.362Z,99282.95
2018-12-27T05:16:53.688Z,99286.97
2018-12-27T05:19:22.590Z,99283.12
2018-12-27T05:21:51.269Z,99283.69
2018-12-27T05:24:19.906Z,99281.08
2018-12-27T05:26:48.830Z,99281.08
2018-12-27T05:29:17.543Z,99278.08
2018-12-27T05:31:46.183Z,99279.42
2018-12-27T05:34:14.815Z,99281.29
2018-12-27T05:36:43.496Z,99282.95
2018-12-27T05:39:12.114Z,99276.00
2018-12-27T05:41:40.766Z,99288.06
2018-12-27T05:44:09.436Z,99281.08
2018-12-27T05:46:38.070Z,99282.63
2018-12-27T05:49:06.713Z,99281.57
2018-12-27T05:51:35.646Z,99282.66
2018-12-27T05:54:04.274Z,99285.52
2018-12-27T05:56:32.908Z,99283.64
2018-12-27T05:59:01.550Z,99281.85
2018-12-27T06:01:30.590Z,99284.50
2018-12-27T06:03:59.232Z,99281.81
2018-12-27T06:06:27.886Z,99283.44
2018-12-27T06:08:56.521Z,99281.08
2018-12-27T06:11:25.151Z,99279.73
2018-12-27T06:13:54.087Z,99269.51
2018-12-27T06:16:22.731Z,99270.64
2018-12-27T06:18:51.379Z,99277.70
2018-12-27T06:21:20.115Z,99269.55
2018-12-27T06:23:48.741Z,99276.73
2018-12-27T06:26:17.375Z,99282.09
2018-12-27T06:28:47.707Z,99279.42
2018-12-27T06:31:16.710Z,99271.16
2018-12-27T06:33:46.637Z,99272.55
2018-12-27T06:36:15.363Z,99276.77
2018-12-27T06:38:44.067Z,99283.69
2018-12-27T06:41:12.700Z,99270.14
2018-12-27T06:43:41.363Z,99269.66
2018-12-27T06:46:10.039Z,99262.80
2018-12-27T06:48:38.671Z,99271.09
2018-12-27T06:51:07.635Z,99270.24
2018-12-27T06:53:36.719Z,99260.66
2018-12-27T06:56:05.351Z,99261.95
2018-12-27T06:58:37.721Z,99270.53
2018-12-27T07:01:04.337Z,99272.92
2018-12-27T07:03:32.964Z,99268.48
2018-12-27T07:06:01.603Z,99277.27
2018-12-27T07:08:30.256Z,99265.70
2018-12-27T07:10:59.958Z,99262.73
2018-12-27T07:13:28.662Z,99261.19
2018-12-27T07:15:57.366Z,99263.13
2018-12-27T07:18:26.020Z,99256.67
2018-12-27T07:20:54.668Z,99255.19
2018-12-27T07:23:23.311Z,99249.93
2018-12-27T07:25:51.962Z,99245.09
2018-12-27T07:28:20.619Z,99249.51
2018-12-27T07:30:49.252Z,99243.76
2018-12-27T07:33:18.276Z,99252.00
2018-12-27T07:35:46.936Z,99250.41
2018-12-27T07:38:15.891Z,99253.57
2018-12-27T07:40:45.027Z,99257.59
2018-12-27T07:43:13.686Z,99263.09
2018-12-27T07:45:42.323Z,99243.52
2018-12-27T07:48:11.057Z,99236.91
2018-12-27T07:50:39.731Z,99244.37
2018-12-27T07:53:08.375Z,99243.59
2018-12-27T07:55:37.017Z,99240.00
2018-12-27T07:58:05.741Z,99234.08
2018-12-27T08:00:34.375Z,99239.59
2018-12-27T08:03:03.080Z,99233.92
2018-12-27T08:05:31.775Z,99227.74
2018-12-27T08:08:00.548Z,99233.97
2018-12-27T08:10:29.254Z,99229.20
2018-12-27T08:12:57.908Z,99232.20
2018-12-27T08:15:26.534Z,99244.37
2018-12-27T08:17:55.508Z,99235.02
2018-12-27T08:20:24.156Z,99241.53
2018-12-27T08:22:52.788Z,99241.47
2018-12-27T08:25:21.511Z,99237.89
2018-12-27T08:27:50.220Z,99237.45
2018-12-27T08:30:18.852Z,99232.16
2018-12-27T08:32:48.652Z,99238.16
2018-12-27T08:35:17.476Z,99227.04
2018-12-27T08:37:46.145Z,99220.25
2018-12-27T08:40:15.107Z,99222.54
2018-12-27T08:42:44.020Z,99219.95
2018-12-27T08:45:12.919Z,99215.95
2018-12-27T08:47:41.555Z,99217.09
2018-12-27T08:50:10.279Z,99213.94
2018-12-27T08:52:38.946Z,99206.61
2018-12-27T08:55:07.592Z,99218.59
2018-12-27T08:57:36.719Z,99216.41
2018-12-27T09:00:06.099Z,99220.20
2018-12-27T09:02:34.799Z,99210.76
2018-12-27T09:05:03.449Z,99211.09
2018-12-27T09:07:32.291Z,99208.61
2018-12-27T09:10:00.923Z,99209.50
2018-12-27T09:12:29.874Z,99197.65
2018-12-27T09:14:58.684Z,99200.44
2018-12-27T09:17:27.326Z,99204.99
2018-12-27T09:19:56.022Z,99199.81
2018-12-27T09:22:24.648Z,99207.23
2018-12-27T09:24:53.293Z,99196.38
2018-12-27T09:27:22.006Z,99195.66
2018-12-27T09:29:50.659Z,99202.92
2018-12-27T09:32:19.291Z,99205.48
2018-12-27T09:34:47.933Z,99215.16
2018-12-27T09:37:16.755Z,99209.45
2018-12-27T09:39:45.703Z,99214.91
2018-12-27T09:42:14.683Z,99207.00
2018-12-27T09:44:43.322Z,99206.23
2018-12-27T09:47:11.963Z,99200.95
2018-12-27T09:49:40.614Z,99193.39
2018-12-27T09:52:09.360Z,99189.17
2018-12-27T09:54:38.021Z,99194.67
2018-12-27T09:57:07.388Z,99190.72
2018-12-27T09:59:36.147Z,99200.89
2018-12-27T10:02:04.856Z,99197.63
2018-12-27T10:04:33.713Z,99192.83
2018-12-27T10:07:02.502Z,99187.19
2018-12-27T10:09:31.164Z,99188.95
2018-12-27T10:11:59.822Z,99186.03
2018-12-27T10:14:28.448Z,99181.12
2018-12-27T10:16:57.234Z,99182.33
2018-12-27T10:19:25.932Z,99173.01
2018-12-27T10:21:54.570Z,99166.30
2018-12-27T10:24:23.211Z,99157.41
2018-12-27T10:26:51.884Z,99156.09
2018-12-27T10:29:20.527Z,99153.91
2018-12-27T10:31:49.232Z,99157.72
2018-12-27T10:34:17.916Z,99151.11
2018-12-27T10:36:46.588Z,99146.78
2018-12-27T10:39:15.813Z,99148.14
2018-12-27T10:41:44.449Z,99140.88
2018-12-27T10:44:13.347Z,99136.56
2018-12-27T10:46:41.987Z,99133.34
2018-12-27T10:49:11.051Z,99137.88
2018-12-27T10:51:40.435Z,99131.19
2018-12-27T10:54:09.273Z,99126.61
2018-12-27T10:56:37.891Z,99119.63
2018-12-27T10:59:06.527Z,99114.76
2018-12-27T11:01:36.017Z,99104.28
2018-12-27T11:04:05.739Z,99101.86
2018-12-27T11:06:34.521Z,99096.52
2018-12-27T11:09:05.251Z,99089.52
2018-12-27T11:11:33.958Z,99088.44
2018-12-27T11:14:02.607Z,99083.59
2018-12-27T11:16:31.251Z,99073.89
2018-12-27T11:18:59.893Z,99073.36
2018-12-27T11:21:28.537Z,99067.44
2018-12-27T11:23:57.184Z,99065.25
2018-12-27T11:26:26.119Z,99062.55
2018-12-27T11:28:54.755Z,99065.50
2018-12-27T11:31:23.400Z,99061.47
2018-12-27T11:33:53.042Z,99051.79
2018-12-27T11:36:21.678Z,99054.19
2018-12-27T11:38:50.330Z,99052.78
2018-12-27T11:41:19.266Z,99047.13
2018-12-27T11:43:47.896Z,99051.97
2018-12-27T11:46:16.542Z,99048.53
2018-12-27T11:48:45.188Z,99051.45
2018-12-27T11:51:13.827Z,99047.67
2018-12-27T11:53:42.475Z,99045.32
2018-12-27T11:56:11.246Z,99046.92
2018-12-27T11:58:39.904Z,99049.36
2018-12-27T12:01:08.550Z,99047.20
2018-12-27T12:03:37.192Z,99045.03
2018-12-27T12:06:05.839Z,99043.97
2018-12-27T12:08:34.500Z,99049.91
2018-12-27T12:11:03.299Z,99049.36
2018-12-27T12:13:31.935Z,99041.55
2018-12-27T12:16:00.831Z,99037.81
2018-12-27T12:18:29.455Z,99027.04
2018-12-27T12:20:58.075Z,99028.38
2018-12-27T12:23:26.723Z,99032.70
2018-12-27T12:25:55.369Z,99030.27
2018-12-27T12:28:23.993Z,99028.12
2018-12-27T12:30:52.635Z,99026.77
2018-12-27T12:33:21.281Z,99032.42
2018-12-27T12:35:49.994Z,99034.02
2018-12-27T12:38:18.655Z,99027.30
2018-12-27T12:40:47.400Z,99029.45
2018-12-27T12:43:16.094Z,99026.21
2018-12-27T12:45:45.155Z,99028.38
2018-12-27T12:48:13.976Z,99021.36
2018-12-27T12:50:43.106Z,99013.48
2018-12-27T12:53:11.753Z,99004.55
2018-12-27T12:55:40.784Z,99006.14
2018-12-27T12:58:09.440Z,99000.22
2018-12-27T13:00:38.080Z,98997.11
2018-12-27T13:03:07.047Z,98998.17
2018-12-27T13:05:35.695Z,98993.52
2018-12-27T13:08:04.337Z,98994.32
2018-12-27T13:10:32.973Z,98984.92
2018-12-27T13:13:01.627Z,98982.89
2018-12-27T13:15:30.552Z,98989.09
2018-12-27T13:17:59.539Z,98990.32
2018-12-27T13:20:28.195Z,98994.67
2018-12-27T13:22:56.827Z,98992.22
2018-12-27T13:25:25.831Z,98997.14
2018-12-27T13:27:54.501Z,98991.78
2018-12-27T13:30:23.160Z,98990.84
2018-12-27T13:32:52.167Z,98999.07
2018-12-27T13:35:20.914Z,98984.89
2018-12-27T13:37:49.602Z,98993.39
2018-12-27T13:40:18.562Z,98993.19
2018-12-27T13:42:47.196Z,98992.48
2018-12-27T13:45:15.930Z,98980.63
2018-12-27T13:47:44.588Z,98973.00
2018-12-27T13:50:13.228Z,98960.25
2018-12-27T13:52:41.866Z,98963.21
2018-12-27T13:55:10.590Z,98969.18
2018-12-27T13:57:39.224Z,98971.37
2018-12-27T14:00:08.026Z,98964.14
2018-12-27T14:02:36.728Z,98960.33
2018-12-27T14:05:05.368Z,98964.98
2018-12-27T14:07:34.020Z,98969.92
2018-12-27T14:10:02.726Z,98963.19
2018-12-27T14:12:31.374Z,98970.39
2018-12-27T14:15:00.039Z,98957.98
2018-12-27T14:17:28.683Z,98967.70
2018-12-27T14:19:57.387Z,98970.16
2018-12-27T14:22:26.065Z,98971.26
2018-12-27T14:24:58.106Z,98968.31
2018-12-27T14:27:25.059Z,98974.50
2018-12-27T14:29:53.741Z,98966.69
2018-12-27T14:32:22.382Z,98959.97
2018-12-27T14:34:51.407Z,98959.99
2018-12-27T14:37:20.391Z,98954.86
2018-12-27T14:39:49.019Z,98949.75
2018-12-27T14:42:17.699Z,98950.29
2018-12-27T14:44:46.471Z,98945.45
2018-12-27T14:47:15.106Z,98949.48
2018-12-27T14:49:43.864Z,98945.16
2018-12-27T14:52:12.530Z,98942.20
2018-12-27T14:54:41.166Z,98943.81
2018-12-27T14:57:09.798Z,98944.83
2018-12-27T14:59:38.532Z,98949.65
2018-12-27T15:02:07.191Z,98948.23
2018-12-27T15:04:35.919Z,98948.20
2018-12-27T15:07:04.937Z,98947.28
2018-12-27T15:09:33.571Z,98954.45
2018-12-27T15:12:02.494Z,98953.75
2018-12-27T15:14:31.498Z,98959.77
2018-12-27T15:17:00.499Z,98960.22
2018-12-27T15:19:29.227Z,98957.45
2018-12-27T15:21:57.867Z,98955.05
2018-12-27T15:24:26.835Z,98952.27
2018-12-27T15:26:55.727Z,98961.08
2018-12-27T15:29:24.381Z,98956.52
2018-12-27T15:31:53.015Z,98953.90
2018-12-27T15:34:21.653Z,98959.01
2018-12-27T15:36:54.339Z,98960.88
2018-12-27T15:39:20.641Z,98960.42
2018-12-27T15:41:49.275Z,98965.02
2018-12-27T15:44:17.976Z,98974.95
2018-12-27T15:46:46.654Z,98971.73
2018-12-27T15:49:15.302Z,98973.39
2018-12-27T15:51:44.030Z,98966.66
2018-12-27T15:54:12.661Z,98973.43
2018-12-27T15:56:41.296Z,98966.20
2018-12-27T15:59:09.951Z,98965.67
2018-12-27T16:01:38.834Z,98956.27
2018-12-27T16:04:07.492Z,98961.65
2018-12-27T16:06:36.148Z,98960.52
2018-12-27T16:09:06.542Z,98964.50
2018-12-27T16:11:35.179Z,98963.17
2018-12-27T16:14:03.910Z,98965.29
2018-12-27T16:16:32.614Z,98960.25
2018-12-27T16:19:01.256Z,98958.86
2018-12-27T16:21:29.908Z,98961.56
2018-12-27T16:23:58.616Z,98959.42
2018-12-27T16:26:27.669Z,98965.91
2018-12-27T16:28:56.317Z,98967.44
2018-12-27T16:31:24.956Z,98963.05
2018-12-27T16:33:53.603Z,98965.16
2018-12-27T16:36:22.240Z,98961.22
2018-12-27T16:38:51.043Z,98966.31
2018-12-27T16:41:19.702Z,98953.77
2018-12-27T16:43:48.413Z,98952.95
2018-12-27T16:46:17.051Z,98956.41
2018-12-27T16:48:45.697Z,98950.69
2018-12-27T16:51:14.349Z,98951.73
2018-12-27T16:53:43.014Z,98955.79
2018-12-27T16:56:11.679Z,98964.70
2018-12-27T16:58:40.399Z,98964.70
2018-12-27T17:01:09.031Z,98962.50
2018-12-27T17:03:37.681Z,98966.76
2018-12-27T17:06:06.762Z,98973.95
2018-12-27T17:08:35.395Z,98971.50
2018-12-27T17:11:04.031Z,98969.10
2018-12-27T17:13:32.790Z,98969.89
2018-12-27T17:16:02.535Z,98970.16
2018-12-27T17:18:31.194Z,98970.73
2018-12-27T17:21:00.417Z,98966.38
2018-12-27T17:23:29.318Z,98966.42
2018-12-27T17:25:57.965Z,98971.50
2018-12-27T17:28:26.731Z,98980.57
2018-12-27T17:30:55.369Z,98965.56
2018-12-27T17:33:24.031Z,98969.57
2018-12-27T17:35:52.810Z,98968.44
2018-12-27T17:38:21.861Z,98975.51
2018-12-27T17:40:50.608Z,98973.67
2018-12-27T17:43:20.344Z,98980.53
2018-12-27T17:45:49.069Z,98969.25
2018-12-27T17:48:17.979Z,98972.52
2018-12-27T17:50:47.104Z,98970.09
2018-12-27T17:53:16.700Z,98970.40
2018-12-27T17:55:46.659Z,98968.27
2018-12-27T17:58:15.819Z,98963.80
2018-12-27T18:00:44.458Z,98971.31
2018-12-27T18:03:13.110Z,98964.29
2018-12-27T18:05:41.786Z,98963.46
2018-12-27T18:08:10.595Z,98963.19
2018-12-27T18:10:39.331Z,98969.61
2018-12-27T18:13:07.995Z,98976.36
2018-12-27T18:15:36.631Z,98972.57
2018-12-27T18:18:05.384Z,98981.91
2018-12-27T18:20:34.683Z,98965.56
2018-12-27T18:23:03.363Z,98973.87
2018-12-27T18:25:32.353Z,98963.72
2018-12-27T18:28:01.054Z,98960.48
2018-12-27T18:30:29.730Z,98964.45
2018-12-27T18:32:59.268Z,98962.08
2018-12-27T18:35:28.152Z,98958.84
2018-12-27T18:37:56.814Z,98958.56
2018-12-27T18:40:25.640Z,98959.95
2018-12-27T18:42:54.294Z,98957.58
2018-12-27T18:45:23.090Z,98957.18
2018-12-27T18:47:51.756Z,98962.02
2018-12-27T18:50:20.418Z,98960.67
2018-12-27T18:52:49.056Z,98951.05
2018-12-27T18:55:20.281Z,98955.91
2018-12-27T18:57:48.144Z,98964.95
2018-12-27T19:00:16.862Z,98967.05
2018-12-27T19:02:45.504Z,98971.92
2018-12-27T19:05:14.177Z,98969.68
2018-12-27T19:07:45.128Z,98958.97
2018-12-27T19:10:13.375Z,98962.29
2018-12-27T19:13:02.801Z,98960.12
2018-12-27T19:15:32.146Z,98966.55
2018-12-27T19:18:09.954Z,98962.03
2018-12-27T19:20:40.647Z,98958.52
2018-12-27T19:23:17.274Z,98959.05
2018-12-27T19:25:45.963Z,98968.38
2018-12-27T19:28:14.942Z,98971.37
2018-12-27T19:30:43.674Z,98969.72
2018-12-27T19:33:12.470Z,98967.91
2018-12-27T19:35:41.114Z,98971.06
2018-12-27T19:38:10.856Z,98973.42
2018-12-27T19:40:39.838Z,98971.04
2018-12-27T19:43:08.458Z,98976.76
2018-12-27T19:45:38.548Z,98984.25
2018-12-27T19:48:07.238Z,98990.62
2018-12-27T19:50:37.166Z,98997.13
2018-12-27T19:53:06.862Z,98991.76
2018-12-27T19:55:35.579Z,98981.52
2018-12-27T19:58:04.324Z,98991.36
2018-12-27T20:00:33.017Z,98987.08
2018-12-27T20:03:01.666Z,98989.53
2018-12-27T20:05:30.381Z,98997.25
2018-12-27T20:07:59.655Z,98986.30
2018-12-27T20:10:28.715Z,98991.15
2018-12-27T20:12:57.738Z,98980.70
2018-12-27T20:15:26.883Z,98984.02
2018-12-27T20:17:55.527Z,98986.30
2018-12-27T20:20:24.260Z,98986.84
2018-12-27T20:22:53.055Z,98987.89
2018-12-27T20:25:21.731Z,98984.98
2018-12-27T20:27:50.396Z,98984.40
2018-12-27T20:30:19.063Z,98983.03
2018-12-27T20:32:47.755Z,98990.11
2018-12-27T20:35:16.401Z,98992.48
2018-12-27T20:37:45.047Z,98984.17
2018-12-27T20:40:13.832Z,98984.59
2018-12-27T20:42:42.479Z,98989.95
2018-12-27T20:45:11.201Z,98984.59
2018-12-27T20:47:39.862Z,98984.53
2018-12-27T20:50:08.513Z,98987.83
2018-12-27T20:52:37.158Z,98985.09
2018-12-27T20:55:06.816Z,98989.39
2018-12-27T20:57:35.846Z,98983.83
2018-12-27T21:00:04.832Z,98997.06
2018-12-27T21:02:34.124Z,98992.34
2018-12-27T21:05:02.772Z,98990.70
2018-12-27T21:07:32.505Z,98982.72
2018-12-27T21:10:01.156Z,98977.41
2018-12-27T21:12:29.871Z,98970.48
2018-12-27T21:14:58.531Z,98971.58
2018-12-27T21:17:27.171Z,98971.09
2018-12-27T21:19:55.823Z,98960.75
2018-12-27T21:22:24.477Z,98962.55
2018-12-27T21:24:53.200Z,98954.23
2018-12-27T21:27:21.866Z,98955.05
2018-12-27T21:29:50.483Z,98950.77
2018-12-27T21:32:19.263Z,98950.23
2018-12-27T21:34:48.719Z,98951.02
2018-12-27T21:37:17.517Z,98945.91
2018-12-27T21:39:46.226Z,98957.98
2018-12-27T21:42:14.864Z,98954.99
2018-12-27T21:44:43.528Z,98964.07
2018-12-27T21:47:12.154Z,98965.73
2018-12-27T21:49:40.792Z,98967.81
2018-12-27T21:52:09.453Z,98982.91
2018-12-27T21:54:38.188Z,98976.94
2018-12-27T21:57:06.979Z,98995.88
2018-12-27T21:59:35.640Z,98981.73
2018-12-27T22:02:04.272Z,98978.59
2018-12-27T22:04:33.469Z,98981.05
2018-12-27T22:07:03.222Z,98973.03
2018-12-27T22:09:31.854Z,98965.44
2018-12-27T22:12:00.641Z,98955.34
2018-12-27T22:14:29.439Z,98957.56
2018-12-27T22:16:58.357Z,98941.61
2018-12-27T22:19:27.141Z,98937.88
2018-12-27T22:21:55.790Z,98947.13
2018-12-27T22:24:24.431Z,98935.47
2018-12-27T22:26:53.123Z,98934.61
2018-12-27T22:29:21.843Z,98940.25
2018-12-27T22:31:50.987Z,98943.69
2018-12-27T22:34:20.667Z,98939.03
2018-12-27T22:36:49.723Z,98938.50
2018-12-27T22:39:18.379Z,98936.61
2018-12-27T22:41:47.016Z,98944.14
2018-12-27T22:44:15.827Z,98952.35
2018-12-27T22:46:44.463Z,98942.72
2018-12-27T22:49:13.449Z,98950.78
2018-12-27T22:51:42.103Z,98945.16
2018-12-27T22:54:10.741Z,98947.05
2018-12-27T22:56:39.964Z,98950.00
2018-12-27T22:59:09.020Z,98941.16
2018-12-27T23:01:37.656Z,98943.86
2018-12-27T23:04:07.115Z,98945.12
2018-12-27T23:06:35.770Z,98941.69
2018-12-27T23:09:05.506Z,98944.64
2018-12-27T23:11:34.720Z,98943.03
2018-12-27T23:14:03.542Z,98949.73
2018-12-27T23:16:32.252Z,98952.41
2018-12-27T23:19:00.892Z,98955.64
2018-12-27T23:21:29.568Z,98959.91
2018-12-27T23:23:58.248Z,98952.43
2018-12-27T23:26:26.893Z,98955.95
2018-12-27T23:28:55.940Z,98948.74
2018-12-27T23:31:24.603Z,98943.05
2018-12-27T23:33:53.717Z,98939.99
2018-12-27T23:36:22.639Z,98928.52
2018-12-27T23:38:51.283Z,98931.33
2018-12-27T23:41:19.924Z,98938.66
2018-12-27T23:43:49.321Z,98939.14
2018-12-27T23:46:17.951Z,98936.41
2018-12-27T23:48:46.911Z,98931.70
2018-12-27T23:51:15.973Z,98933.59
2018-12-27T23:53:44.671Z,98929.00
2018-12-27T23:56:13.359Z,98930.91
2018-12-27T23:58:42.032Z,98926.67
